sensor_id;sensor_type;location;lat;lon;timestamp;temperature;humidity
2158;DHT22;41972;48.774;9.282;2023-06-10T00:01:13;16.10;99.90
2158;DHT22;41972;48.774;9.282;2023-06-10T00:03:38;16.00;99.90
2158;DHT22;41972;48.774;9.282;2023-06-10T00:06:04;15.80;99.90
2158;DHT22;41972;48.774;9.282;2023-06-10T00:08:30;15.70;99.90
2158;DHT22;41972;48.774;9.282;2023-06-10T00:10:56;15.70;99.90
2158;DHT22;41972;48.774;9.282;2023-06-10T00:13:22;16.10;99.90
2158;DHT22;41972;48.774;9.282;2023-06-10T00:15:48;16.10;99.90
2158;DHT22;41972;48.774;9.282;2023-06-10T00:18:13;16.40;99.90
2158;DHT22;41972;48.774;9.282;2023-06-10T00:20:40;16.50;99.90
2158;DHT22;41972;48.774;9.282;2023-06-10T00:23:07;16.60;99.90
2158;DHT22;41972;48.774;9.282;2023-06-10T00:25:34;16.70;99.90
2158;DHT22;41972;48.774;9.282;2023-06-10T00:27:59;16.80;99.90
2158;DHT22;41972;48.774;9.282;2023-06-10T00:30:25;17.10;99.90
2158;DHT22;41972;48.774;9.282;2023-06-10T00:32:51;17.10;99.90
2158;DHT22;41972;48.774;9.282;2023-06-10T00:35:17;17.00;99.90
2158;DHT22;41972;48.774;9.282;2023-06-10T00:37:42;16.70;99.90
2158;DHT22;41972;48.774;9.282;2023-06-10T00:40:08;16.70;99.90
2158;DHT22;41972;48.774;9.282;2023-06-10T00:42:34;16.70;99.90
2158;DHT22;41972;48.774;9.282;2023-06-10T00:45:00;16.80;99.90
2158;DHT22;41972;48.774;9.282;2023-06-10T00:47:27;16.70;99.90
2158;DHT22;41972;48.774;9.282;2023-06-10T00:49:53;16.60;99.90
2158;DHT22;41972;48.774;9.282;2023-06-10T00:52:20;16.40;99.90
2158;DHT22;41972;48.774;9.282;2023-06-10T00:54:47;16.20;99.90
2158;DHT22;41972;48.774;9.282;2023-06-10T00:57:13;16.00;99.90
2158;DHT22;41972;48.774;9.282;2023-06-10T00:59:40;15.90;99.90
2158;DHT22;41972;48.774;9.282;2023-06-10T01:02:07;15.80;99.90
2158;DHT22;41972;48.774;9.282;2023-06-10T01:04:34;15.80;99.90
2158;DHT22;41972;48.774;9.282;2023-06-10T01:07:28;15.80;99.90
2158;DHT22;41972;48.774;9.282;2023-06-10T01:10:19;15.70;99.90
2158;DHT22;41972;48.774;9.282;2023-06-10T01:13:10;15.50;99.90
2158;DHT22;41972;48.774;9.282;2023-06-10T01:15:37;15.30;99.90
2158;DHT22;41972;48.774;9.282;2023-06-10T01:18:05;15.30;99.90
2158;DHT22;41972;48.774;9.282;2023-06-10T01:20:34;15.20;99.90
2158;DHT22;41972;48.774;9.282;2023-06-10T01:23:00;15.20;99.90
2158;DHT22;41972;48.774;9.282;2023-06-10T01:25:27;15.30;99.90
2158;DHT22;41972;48.774;9.282;2023-06-10T01:33:28;14.90;99.90
2158;DHT22;41972;48.774;9.282;2023-06-10T01:35:56;14.80;99.90
2158;DHT22;41972;48.774;9.282;2023-06-10T01:38:25;14.70;99.90
2158;DHT22;41972;48.774;9.282;2023-06-10T01:40:53;14.60;99.90
2158;DHT22;41972;48.774;9.282;2023-06-10T01:43:21;14.50;99.90
2158;DHT22;41972;48.774;9.282;2023-06-10T01:45:47;14.60;99.90
2158;DHT22;41972;48.774;9.282;2023-06-10T01:48:12;14.50;99.90
2158;DHT22;41972;48.774;9.282;2023-06-10T01:50:38;14.50;99.90
2158;DHT22;41972;48.774;9.282;2023-06-10T01:53:04;14.40;99.90
2158;DHT22;41972;48.774;9.282;2023-06-10T01:55:30;14.50;99.90
2158;DHT22;41972;48.774;9.282;2023-06-10T01:57:56;14.60;99.90
2158;DHT22;41972;48.774;9.282;2023-06-10T02:00:22;14.80;99.90
2158;DHT22;41972;48.774;9.282;2023-06-10T02:02:48;15.00;99.90
2158;DHT22;41972;48.774;9.282;2023-06-10T02:05:13;15.60;99.90
2158;DHT22;41972;48.774;9.282;2023-06-10T02:07:39;15.80;99.90
2158;DHT22;41972;48.774;9.282;2023-06-10T02:10:07;15.80;99.90
2158;DHT22;41972;48.774;9.282;2023-06-10T02:12:33;15.50;99.90
2158;DHT22;41972;48.774;9.282;2023-06-10T02:14:58;15.40;99.90
2158;DHT22;41972;48.774;9.282;2023-06-10T02:17:24;15.20;99.90
2158;DHT22;41972;48.774;9.282;2023-06-10T02:19:50;15.10;99.90
2158;DHT22;41972;48.774;9.282;2023-06-10T02:22:22;14.90;99.90
2158;DHT22;41972;48.774;9.282;2023-06-10T02:24:48;15.00;99.90
2158;DHT22;41972;48.774;9.282;2023-06-10T02:27:14;15.00;99.90
2158;DHT22;41972;48.774;9.282;2023-06-10T02:29:40;15.10;99.90
2158;DHT22;41972;48.774;9.282;2023-06-10T02:32:07;15.00;99.90
2158;DHT22;41972;48.774;9.282;2023-06-10T02:34:33;15.00;99.90
2158;DHT22;41972;48.774;9.282;2023-06-10T02:36:59;14.60;99.90
2158;DHT22;41972;48.774;9.282;2023-06-10T02:39:24;14.50;99.90
2158;DHT22;41972;48.774;9.282;2023-06-10T02:41:50;14.40;99.90
2158;DHT22;41972;48.774;9.282;2023-06-10T02:44:17;14.40;99.90
2158;DHT22;41972;48.774;9.282;2023-06-10T02:46:43;14.30;99.90
2158;DHT22;41972;48.774;9.282;2023-06-10T02:49:11;14.40;99.90
2158;DHT22;41972;48.774;9.282;2023-06-10T02:51:37;14.40;99.90
2158;DHT22;41972;48.774;9.282;2023-06-10T02:54:02;14.20;99.90
2158;DHT22;41972;48.774;9.282;2023-06-10T02:56:28;14.20;99.90
2158;DHT22;41972;48.774;9.282;2023-06-10T02:58:54;14.20;99.90
2158;DHT22;41972;48.774;9.282;2023-06-10T03:01:21;14.10;99.90
2158;DHT22;41972;48.774;9.282;2023-06-10T03:03:46;14.00;99.90
2158;DHT22;41972;48.774;9.282;2023-06-10T03:06:13;13.90;99.90
2158;DHT22;41972;48.774;9.282;2023-06-10T03:08:39;14.10;99.90
2158;DHT22;41972;48.774;9.282;2023-06-10T03:11:05;13.90;99.90
2158;DHT22;41972;48.774;9.282;2023-06-10T03:13:32;14.10;99.90
2158;DHT22;41972;48.774;9.282;2023-06-10T03:15:57;13.90;99.90
2158;DHT22;41972;48.774;9.282;2023-06-10T03:18:26;13.90;99.90
2158;DHT22;41972;48.774;9.282;2023-06-10T03:20:52;13.90;99.90
2158;DHT22;41972;48.774;9.282;2023-06-10T03:23:18;14.00;99.90
2158;DHT22;41972;48.774;9.282;2023-06-10T03:25:44;14.00;99.90
2158;DHT22;41972;48.774;9.282;2023-06-10T03:28:10;14.10;99.90
2158;DHT22;41972;48.774;9.282;2023-06-10T03:30:35;14.20;99.90
2158;DHT22;41972;48.774;9.282;2023-06-10T03:33:01;14.20;99.90
2158;DHT22;41972;48.774;9.282;2023-06-10T03:35:26;14.20;99.90
2158;DHT22;41972;48.774;9.282;2023-06-10T03:37:52;14.20;99.90
2158;DHT22;41972;48.774;9.282;2023-06-10T03:40:18;14.30;99.90
2158;DHT22;41972;48.774;9.282;2023-06-10T03:42:43;14.40;99.90
2158;DHT22;41972;48.774;9.282;2023-06-10T03:45:10;14.50;99.90
2158;DHT22;41972;48.774;9.282;2023-06-10T03:47:36;14.60;99.90
2158;DHT22;41972;48.774;9.282;2023-06-10T03:50:06;14.50;99.90
2158;DHT22;41972;48.774;9.282;2023-06-10T03:52:32;14.50;99.90
2158;DHT22;41972;48.774;9.282;2023-06-10T03:54:57;14.50;99.90
2158;DHT22;41972;48.774;9.282;2023-06-10T03:57:23;14.40;99.90
2158;DHT22;41972;48.774;9.282;2023-06-10T03:59:48;14.10;99.90
2158;DHT22;41972;48.774;9.282;2023-06-10T04:02:14;14.00;99.90
2158;DHT22;41972;48.774;9.282;2023-06-10T04:04:40;14.10;99.90
2158;DHT22;41972;48.774;9.282;2023-06-10T04:07:06;14.20;99.90
2158;DHT22;41972;48.774;9.282;2023-06-10T04:09:33;14.30;99.90
2158;DHT22;41972;48.774;9.282;2023-06-10T04:11:59;14.50;99.90
2158;DHT22;41972;48.774;9.282;2023-06-10T04:14:24;14.60;99.90
2158;DHT22;41972;48.774;9.282;2023-06-10T04:16:50;14.70;99.90
2158;DHT22;41972;48.774;9.282;2023-06-10T04:19:15;15.60;99.90
2158;DHT22;41972;48.774;9.282;2023-06-10T04:21:42;16.90;99.90
2158;DHT22;41972;48.774;9.282;2023-06-10T04:24:07;18.80;99.90
2158;DHT22;41972;48.774;9.282;2023-06-10T04:26:37;20.30;99.90
2158;DHT22;41972;48.774;9.282;2023-06-10T04:29:02;22.10;99.90
2158;DHT22;41972;48.774;9.282;2023-06-10T04:31:28;23.20;99.90
2158;DHT22;41972;48.774;9.282;2023-06-10T04:33:54;23.40;99.90
2158;DHT22;41972;48.774;9.282;2023-06-10T04:36:20;25.10;99.90
2158;DHT22;41972;48.774;9.282;2023-06-10T04:38:45;25.10;99.90
2158;DHT22;41972;48.774;9.282;2023-06-10T04:41:12;25.50;99.90
2158;DHT22;41972;48.774;9.282;2023-06-10T04:43:38;25.70;99.90
2158;DHT22;41972;48.774;9.282;2023-06-10T04:46:04;25.60;99.90
2158;DHT22;41972;48.774;9.282;2023-06-10T04:48:29;24.30;99.90
2158;DHT22;41972;48.774;9.282;2023-06-10T04:50:55;24.70;99.90
2158;DHT22;41972;48.774;9.282;2023-06-10T04:53:21;25.10;99.90
2158;DHT22;41972;48.774;9.282;2023-06-10T04:55:47;25.30;99.90
2158;DHT22;41972;48.774;9.282;2023-06-10T04:58:13;26.10;99.90
2158;DHT22;41972;48.774;9.282;2023-06-10T05:00:39;26.00;99.90
2158;DHT22;41972;48.774;9.282;2023-06-10T05:03:05;26.00;99.90
2158;DHT22;41972;48.774;9.282;2023-06-10T05:05:30;26.70;99.90
2158;DHT22;41972;48.774;9.282;2023-06-10T05:07:56;28.70;99.90
2158;DHT22;41972;48.774;9.282;2023-06-10T05:10:21;27.80;99.90
2158;DHT22;41972;48.774;9.282;2023-06-10T05:12:47;28.60;99.90
2158;DHT22;41972;48.774;9.282;2023-06-10T05:15:12;29.30;99.90
2158;DHT22;41972;48.774;9.282;2023-06-10T05:17:38;29.00;99.90
2158;DHT22;41972;48.774;9.282;2023-06-10T05:20:04;30.50;99.90
2158;DHT22;41972;48.774;9.282;2023-06-10T05:22:30;31.60;99.90
2158;DHT22;41972;48.774;9.282;2023-06-10T05:24:55;30.00;99.90
2158;DHT22;41972;48.774;9.282;2023-06-10T05:27:21;26.40;99.90
2158;DHT22;41972;48.774;9.282;2023-06-10T05:29:47;25.60;99.90
2158;DHT22;41972;48.774;9.282;2023-06-10T05:32:13;24.80;99.90
2158;DHT22;41972;48.774;9.282;2023-06-10T05:34:38;24.70;99.90
2158;DHT22;41972;48.774;9.282;2023-06-10T05:37:04;25.90;99.90
2158;DHT22;41972;48.774;9.282;2023-06-10T05:39:30;25.60;99.90
2158;DHT22;41972;48.774;9.282;2023-06-10T05:41:56;23.90;99.90
2158;DHT22;41972;48.774;9.282;2023-06-10T05:44:24;25.20;99.90
2158;DHT22;41972;48.774;9.282;2023-06-10T05:46:50;24.70;99.90
2158;DHT22;41972;48.774;9.282;2023-06-10T05:49:16;24.10;99.90
2158;DHT22;41972;48.774;9.282;2023-06-10T05:51:41;22.70;99.90
2158;DHT22;41972;48.774;9.282;2023-06-10T05:54:07;21.90;99.90
2158;DHT22;41972;48.774;9.282;2023-06-10T05:56:33;22.50;99.90
2158;DHT22;41972;48.774;9.282;2023-06-10T05:58:58;22.50;99.90
2158;DHT22;41972;48.774;9.282;2023-06-10T06:01:24;22.90;99.90
2158;DHT22;41972;48.774;9.282;2023-06-10T06:03:49;23.40;99.90
2158;DHT22;41972;48.774;9.282;2023-06-10T06:06:15;23.50;99.90
2158;DHT22;41972;48.774;9.282;2023-06-10T06:08:41;23.50;99.90
2158;DHT22;41972;48.774;9.282;2023-06-10T06:11:08;23.70;99.90
2158;DHT22;41972;48.774;9.282;2023-06-10T06:13:33;23.00;99.90
2158;DHT22;41972;48.774;9.282;2023-06-10T06:15:59;24.30;99.90
2158;DHT22;41972;48.774;9.282;2023-06-10T06:18:24;24.00;99.90
2158;DHT22;41972;48.774;9.282;2023-06-10T06:20:50;23.30;99.90
2158;DHT22;41972;48.774;9.282;2023-06-10T06:23:16;24.20;99.90
2158;DHT22;41972;48.774;9.282;2023-06-10T06:25:41;24.30;99.90
2158;DHT22;41972;48.774;9.282;2023-06-10T06:28:07;26.20;99.90
2158;DHT22;41972;48.774;9.282;2023-06-10T06:30:34;26.30;99.90
2158;DHT22;41972;48.774;9.282;2023-06-10T06:33:01;26.50;99.90
2158;DHT22;41972;48.774;9.282;2023-06-10T06:35:27;26.60;99.90
2158;DHT22;41972;48.774;9.282;2023-06-10T06:37:53;27.90;99.90
2158;DHT22;41972;48.774;9.282;2023-06-10T06:40:18;27.90;99.90
2158;DHT22;41972;48.774;9.282;2023-06-10T06:42:44;30.20;99.90
2158;DHT22;41972;48.774;9.282;2023-06-10T06:45:10;29.50;99.90
2158;DHT22;41972;48.774;9.282;2023-06-10T06:47:36;28.40;99.90
2158;DHT22;41972;48.774;9.282;2023-06-10T06:50:01;29.30;99.90
2158;DHT22;41972;48.774;9.282;2023-06-10T06:52:28;28.50;99.90
2158;DHT22;41972;48.774;9.282;2023-06-10T06:54:54;28.90;99.90
2158;DHT22;41972;48.774;9.282;2023-06-10T06:57:20;30.70;99.90
2158;DHT22;41972;48.774;9.282;2023-06-10T06:59:45;30.70;99.90
2158;DHT22;41972;48.774;9.282;2023-06-10T07:02:11;30.00;99.90
2158;DHT22;41972;48.774;9.282;2023-06-10T07:04:37;29.80;99.90
2158;DHT22;41972;48.774;9.282;2023-06-10T07:07:04;31.80;99.90
2158;DHT22;41972;48.774;9.282;2023-06-10T07:09:31;31.70;99.90
2158;DHT22;41972;48.774;9.282;2023-06-10T07:11:57;31.60;99.90
2158;DHT22;41972;48.774;9.282;2023-06-10T07:14:22;32.60;99.90
2158;DHT22;41972;48.774;9.282;2023-06-10T07:16:48;31.70;99.90
2158;DHT22;41972;48.774;9.282;2023-06-10T07:19:14;31.60;99.90
2158;DHT22;41972;48.774;9.282;2023-06-10T07:21:40;30.10;99.90
2158;DHT22;41972;48.774;9.282;2023-06-10T07:24:06;28.90;99.90
2158;DHT22;41972;48.774;9.282;2023-06-10T07:26:32;27.80;99.90
2158;DHT22;41972;48.774;9.282;2023-06-10T07:28:58;27.10;99.90
2158;DHT22;41972;48.774;9.282;2023-06-10T07:31:23;28.70;99.90
2158;DHT22;41972;48.774;9.282;2023-06-10T07:33:50;31.60;99.90
2158;DHT22;41972;48.774;9.282;2023-06-10T07:36:15;32.90;99.90
2158;DHT22;41972;48.774;9.282;2023-06-10T07:38:41;32.90;99.90
2158;DHT22;41972;48.774;9.282;2023-06-10T07:41:08;33.30;99.90
2158;DHT22;41972;48.774;9.282;2023-06-10T07:43:33;33.50;99.90
2158;DHT22;41972;48.774;9.282;2023-06-10T07:45:59;33.50;99.90
2158;DHT22;41972;48.774;9.282;2023-06-10T07:48:25;34.60;99.90
2158;DHT22;41972;48.774;9.282;2023-06-10T07:50:51;33.50;99.90
2158;DHT22;41972;48.774;9.282;2023-06-10T07:53:17;33.60;99.90
2158;DHT22;41972;48.774;9.282;2023-06-10T07:55:43;30.40;99.90
2158;DHT22;41972;48.774;9.282;2023-06-10T07:58:08;31.00;99.90
2158;DHT22;41972;48.774;9.282;2023-06-10T08:00:34;30.00;99.90
2158;DHT22;41972;48.774;9.282;2023-06-10T08:02:59;29.80;99.90
2158;DHT22;41972;48.774;9.282;2023-06-10T08:05:25;31.60;99.90
2158;DHT22;41972;48.774;9.282;2023-06-10T08:07:51;32.00;99.90
2158;DHT22;41972;48.774;9.282;2023-06-10T08:10:17;32.60;99.90
2158;DHT22;41972;48.774;9.282;2023-06-10T08:12:42;36.30;99.90
2158;DHT22;41972;48.774;9.282;2023-06-10T08:15:08;36.90;99.90
2158;DHT22;41972;48.774;9.282;2023-06-10T08:17:34;35.40;99.90
2158;DHT22;41972;48.774;9.282;2023-06-10T08:20:01;34.20;99.90
2158;DHT22;41972;48.774;9.282;2023-06-10T08:22:28;31.90;99.90
2158;DHT22;41972;48.774;9.282;2023-06-10T08:24:54;30.90;99.90
2158;DHT22;41972;48.774;9.282;2023-06-10T08:27:21;32.00;99.90
2158;DHT22;41972;48.774;9.282;2023-06-10T08:29:47;33.00;99.90
2158;DHT22;41972;48.774;9.282;2023-06-10T08:32:12;31.30;99.90
2158;DHT22;41972;48.774;9.282;2023-06-10T08:34:38;30.00;99.90
2158;DHT22;41972;48.774;9.282;2023-06-10T08:37:04;29.30;99.90
2158;DHT22;41972;48.774;9.282;2023-06-10T08:39:30;31.30;99.90
2158;DHT22;41972;48.774;9.282;2023-06-10T08:44:29;30.20;99.90
2158;DHT22;41972;48.774;9.282;2023-06-10T08:46:59;31.20;99.90
2158;DHT22;41972;48.774;9.282;2023-06-10T08:49:26;29.40;99.90
2158;DHT22;41972;48.774;9.282;2023-06-10T08:51:59;30.50;99.90
2158;DHT22;41972;48.774;9.282;2023-06-10T08:54:28;30.40;99.90
2158;DHT22;41972;48.774;9.282;2023-06-10T08:56:55;29.30;99.90
2158;DHT22;41972;48.774;9.282;2023-06-10T08:59:23;28.90;99.90
2158;DHT22;41972;48.774;9.282;2023-06-10T09:01:50;29.90;99.90
2158;DHT22;41972;48.774;9.282;2023-06-10T09:04:17;29.30;99.90
2158;DHT22;41972;48.774;9.282;2023-06-10T09:06:44;29.80;99.90
2158;DHT22;41972;48.774;9.282;2023-06-10T09:09:10;28.90;99.90
2158;DHT22;41972;48.774;9.282;2023-06-10T09:11:38;27.70;99.90
2158;DHT22;41972;48.774;9.282;2023-06-10T09:14:03;28.10;99.90
2158;DHT22;41972;48.774;9.282;2023-06-10T09:16:29;29.80;99.90
2158;DHT22;41972;48.774;9.282;2023-06-10T09:18:55;31.90;99.90
2158;DHT22;41972;48.774;9.282;2023-06-10T09:21:22;30.50;99.90
2158;DHT22;41972;48.774;9.282;2023-06-10T09:23:48;29.00;99.90
2158;DHT22;41972;48.774;9.282;2023-06-10T09:26:14;29.80;99.90
2158;DHT22;41972;48.774;9.282;2023-06-10T09:28:43;28.50;99.90
2158;DHT22;41972;48.774;9.282;2023-06-10T09:31:09;29.10;99.90
2158;DHT22;41972;48.774;9.282;2023-06-10T09:33:39;28.30;99.90
2158;DHT22;41972;48.774;9.282;2023-06-10T09:36:05;26.90;99.90
2158;DHT22;41972;48.774;9.282;2023-06-10T09:38:32;26.00;99.90
2158;DHT22;41972;48.774;9.282;2023-06-10T09:40:59;27.00;99.90
2158;DHT22;41972;48.774;9.282;2023-06-10T09:43:43;26.70;99.90
2158;DHT22;41972;48.774;9.282;2023-06-10T09:46:17;27.60;99.90
2158;DHT22;41972;48.774;9.282;2023-06-10T09:48:44;30.60;99.90
2158;DHT22;41972;48.774;9.282;2023-06-10T09:51:11;29.70;99.90
2158;DHT22;41972;48.774;9.282;2023-06-10T09:53:37;29.20;99.90
2158;DHT22;41972;48.774;9.282;2023-06-10T09:56:03;28.90;99.90
2158;DHT22;41972;48.774;9.282;2023-06-10T09:58:38;27.80;99.90
2158;DHT22;41972;48.774;9.282;2023-06-10T10:01:15;27.70;99.90
2158;DHT22;41972;48.774;9.282;2023-06-10T10:03:49;28.30;99.90
2158;DHT22;41972;48.774;9.282;2023-06-10T10:06:16;29.80;99.90
2158;DHT22;41972;48.774;9.282;2023-06-10T10:08:42;29.40;99.90
2158;DHT22;41972;48.774;9.282;2023-06-10T10:11:09;29.80;99.90
2158;DHT22;41972;48.774;9.282;2023-06-10T10:13:35;30.40;99.90
2158;DHT22;41972;48.774;9.282;2023-06-10T10:16:09;33.40;99.90
2158;DHT22;41972;48.774;9.282;2023-06-10T10:18:39;31.70;99.90
2158;DHT22;41972;48.774;9.282;2023-06-10T10:21:11;30.70;99.90
2158;DHT22;41972;48.774;9.282;2023-06-10T10:24:02;31.60;99.90
2158;DHT22;41972;48.774;9.282;2023-06-10T10:26:29;30.20;99.90
2158;DHT22;41972;48.774;9.282;2023-06-10T10:31:44;29.00;99.90
2158;DHT22;41972;48.774;9.282;2023-06-10T10:34:15;29.80;99.90
2158;DHT22;41972;48.774;9.282;2023-06-10T10:36:42;29.70;99.90
2158;DHT22;41972;48.774;9.282;2023-06-10T10:39:08;30.40;99.90
2158;DHT22;41972;48.774;9.282;2023-06-10T10:41:36;29.70;99.90
2158;DHT22;41972;48.774;9.282;2023-06-10T10:44:05;31.20;99.90
2158;DHT22;41972;48.774;9.282;2023-06-10T10:46:48;29.70;99.90
2158;DHT22;41972;48.774;9.282;2023-06-10T10:49:14;29.80;99.90
2158;DHT22;41972;48.774;9.282;2023-06-10T10:51:55;30.90;99.90
2158;DHT22;41972;48.774;9.282;2023-06-10T10:54:46;31.40;99.90
2158;DHT22;41972;48.774;9.282;2023-06-10T10:57:13;30.50;99.90
2158;DHT22;41972;48.774;9.282;2023-06-10T10:59:58;29.80;99.90
2158;DHT22;41972;48.774;9.282;2023-06-10T11:02:44;28.40;99.90
2158;DHT22;41972;48.774;9.282;2023-06-10T11:05:14;28.70;99.90
2158;DHT22;41972;48.774;9.282;2023-06-10T11:07:40;28.10;99.90
2158;DHT22;41972;48.774;9.282;2023-06-10T11:10:07;27.90;99.90
2158;DHT22;41972;48.774;9.282;2023-06-10T11:12:51;28.30;99.90
2158;DHT22;41972;48.774;9.282;2023-06-10T11:15:28;28.30;99.90
2158;DHT22;41972;48.774;9.282;2023-06-10T11:18:15;28.20;99.90
2158;DHT22;41972;48.774;9.282;2023-06-10T11:28:39;27.80;99.90
2158;DHT22;41972;48.774;9.282;2023-06-10T11:31:04;28.10;99.90
2158;DHT22;41972;48.774;9.282;2023-06-10T11:33:31;27.60;99.90
2158;DHT22;41972;48.774;9.282;2023-06-10T11:35:56;27.70;99.90
2158;DHT22;41972;48.774;9.282;2023-06-10T11:38:23;27.20;99.90
2158;DHT22;41972;48.774;9.282;2023-06-10T11:40:49;26.90;99.90
2158;DHT22;41972;48.774;9.282;2023-06-10T11:43:17;27.20;99.90
2158;DHT22;41972;48.774;9.282;2023-06-10T11:45:46;27.20;99.90
2158;DHT22;41972;48.774;9.282;2023-06-10T11:48:12;27.10;99.90
2158;DHT22;41972;48.774;9.282;2023-06-10T11:50:38;26.80;99.90
2158;DHT22;41972;48.774;9.282;2023-06-10T11:53:04;27.60;99.90
2158;DHT22;41972;48.774;9.282;2023-06-10T11:55:47;27.70;99.90
2158;DHT22;41972;48.774;9.282;2023-06-10T11:58:16;28.00;99.90
2158;DHT22;41972;48.774;9.282;2023-06-10T12:00:49;27.40;99.90
2158;DHT22;41972;48.774;9.282;2023-06-10T12:03:16;27.90;99.90
2158;DHT22;41972;48.774;9.282;2023-06-10T12:06:04;28.10;99.90
2158;DHT22;41972;48.774;9.282;2023-06-10T12:08:31;28.40;99.90
2158;DHT22;41972;48.774;9.282;2023-06-10T12:10:57;28.60;99.90
2158;DHT22;41972;48.774;9.282;2023-06-10T12:13:25;28.00;99.90
2158;DHT22;41972;48.774;9.282;2023-06-10T12:15:50;27.40;99.90
2158;DHT22;41972;48.774;9.282;2023-06-10T12:18:23;27.50;99.90
2158;DHT22;41972;48.774;9.282;2023-06-10T12:20:49;27.60;99.90
2158;DHT22;41972;48.774;9.282;2023-06-10T12:23:17;27.00;99.90
2158;DHT22;41972;48.774;9.282;2023-06-10T12:25:53;27.30;99.90
2158;DHT22;41972;48.774;9.282;2023-06-10T12:28:26;27.30;99.90
2158;DHT22;41972;48.774;9.282;2023-06-10T12:31:08;27.70;99.90
2158;DHT22;41972;48.774;9.282;2023-06-10T12:33:34;27.80;99.90
2158;DHT22;41972;48.774;9.282;2023-06-10T12:36:00;27.30;99.90
2158;DHT22;41972;48.774;9.282;2023-06-10T12:38:27;27.00;99.90
2158;DHT22;41972;48.774;9.282;2023-06-10T12:40:53;26.80;99.90
2158;DHT22;41972;48.774;9.282;2023-06-10T12:43:22;26.60;99.90
2158;DHT22;41972;48.774;9.282;2023-06-10T12:45:48;26.70;99.90
2158;DHT22;41972;48.774;9.282;2023-06-10T12:48:21;27.30;99.90
2158;DHT22;41972;48.774;9.282;2023-06-10T12:50:57;27.60;99.90
2158;DHT22;41972;48.774;9.282;2023-06-10T12:53:24;27.80;99.90
2158;DHT22;41972;48.774;9.282;2023-06-10T12:55:52;27.60;99.90
2158;DHT22;41972;48.774;9.282;2023-06-10T12:58:19;27.70;99.90
2158;DHT22;41972;48.774;9.282;2023-06-10T13:00:45;27.80;99.90
2158;DHT22;41972;48.774;9.282;2023-06-10T13:03:10;28.10;99.90
2158;DHT22;41972;48.774;9.282;2023-06-10T13:05:36;27.60;99.90
2158;DHT22;41972;48.774;9.282;2023-06-10T13:08:04;27.70;99.90
2158;DHT22;41972;48.774;9.282;2023-06-10T13:10:30;27.30;99.90
2158;DHT22;41972;48.774;9.282;2023-06-10T13:12:56;27.20;99.90
2158;DHT22;41972;48.774;9.282;2023-06-10T13:15:22;27.30;99.90
2158;DHT22;41972;48.774;9.282;2023-06-10T13:17:48;27.40;99.90
2158;DHT22;41972;48.774;9.282;2023-06-10T13:20:15;27.50;99.90
2158;DHT22;41972;48.774;9.282;2023-06-10T13:22:42;27.40;99.90
2158;DHT22;41972;48.774;9.282;2023-06-10T13:25:08;27.40;99.90
2158;DHT22;41972;48.774;9.282;2023-06-10T13:27:36;27.40;99.90
2158;DHT22;41972;48.774;9.282;2023-06-10T13:30:08;27.60;99.90
2158;DHT22;41972;48.774;9.282;2023-06-10T13:32:34;27.80;99.90
2158;DHT22;41972;48.774;9.282;2023-06-10T13:35:00;27.60;99.90
2158;DHT22;41972;48.774;9.282;2023-06-10T13:37:26;27.40;99.90
2158;DHT22;41972;48.774;9.282;2023-06-10T13:39:51;27.30;99.90
2158;DHT22;41972;48.774;9.282;2023-06-10T13:42:20;27.80;99.90
2158;DHT22;41972;48.774;9.282;2023-06-10T13:44:46;27.90;99.90
2158;DHT22;41972;48.774;9.282;2023-06-10T13:47:13;27.40;99.90
2158;DHT22;41972;48.774;9.282;2023-06-10T13:49:39;27.50;99.90
2158;DHT22;41972;48.774;9.282;2023-06-10T13:52:06;27.30;99.90
2158;DHT22;41972;48.774;9.282;2023-06-10T13:54:32;28.00;99.90
2158;DHT22;41972;48.774;9.282;2023-06-10T13:56:57;28.20;99.90
2158;DHT22;41972;48.774;9.282;2023-06-10T13:59:23;27.30;99.90
2158;DHT22;41972;48.774;9.282;2023-06-10T14:01:49;26.90;99.90
2158;DHT22;41972;48.774;9.282;2023-06-10T14:04:14;27.00;99.90
2158;DHT22;41972;48.774;9.282;2023-06-10T14:06:40;26.90;99.90
2158;DHT22;41972;48.774;9.282;2023-06-10T14:09:05;26.90;99.90
2158;DHT22;41972;48.774;9.282;2023-06-10T14:11:31;26.80;99.90
2158;DHT22;41972;48.774;9.282;2023-06-10T14:13:57;27.10;99.90
2158;DHT22;41972;48.774;9.282;2023-06-10T14:16:26;27.20;99.90
2158;DHT22;41972;48.774;9.282;2023-06-10T14:18:52;27.60;99.90
2158;DHT22;41972;48.774;9.282;2023-06-10T14:21:17;27.30;99.90
2158;DHT22;41972;48.774;9.282;2023-06-10T14:23:43;27.80;99.90
2158;DHT22;41972;48.774;9.282;2023-06-10T14:26:09;28.00;99.90
2158;DHT22;41972;48.774;9.282;2023-06-10T14:28:35;27.90;99.90
2158;DHT22;41972;48.774;9.282;2023-06-10T14:31:01;27.80;99.90
2158;DHT22;41972;48.774;9.282;2023-06-10T14:33:26;27.70;99.90
2158;DHT22;41972;48.774;9.282;2023-06-10T14:35:52;27.50;99.90
2158;DHT22;41972;48.774;9.282;2023-06-10T14:38:17;27.30;99.90
2158;DHT22;41972;48.774;9.282;2023-06-10T14:40:43;27.10;99.90
2158;DHT22;41972;48.774;9.282;2023-06-10T14:43:09;26.70;99.90
2158;DHT22;41972;48.774;9.282;2023-06-10T14:45:39;26.90;99.90
2158;DHT22;41972;48.774;9.282;2023-06-10T14:48:06;26.90;99.90
2158;DHT22;41972;48.774;9.282;2023-06-10T14:50:36;26.50;99.90
2158;DHT22;41972;48.774;9.282;2023-06-10T14:53:02;26.80;99.90
2158;DHT22;41972;48.774;9.282;2023-06-10T14:55:27;26.60;99.90
2158;DHT22;41972;48.774;9.282;2023-06-10T14:57:53;26.80;99.90
2158;DHT22;41972;48.774;9.282;2023-06-10T15:00:19;27.10;99.90
2158;DHT22;41972;48.774;9.282;2023-06-10T15:02:48;27.20;99.90
2158;DHT22;41972;48.774;9.282;2023-06-10T15:05:14;27.10;99.90
2158;DHT22;41972;48.774;9.282;2023-06-10T15:07:41;27.10;99.90
2158;DHT22;41972;48.774;9.282;2023-06-10T15:10:07;27.30;99.90
2158;DHT22;41972;48.774;9.282;2023-06-10T15:12:32;27.60;99.90
2158;DHT22;41972;48.774;9.282;2023-06-10T15:14:58;27.80;99.90
2158;DHT22;41972;48.774;9.282;2023-06-10T15:17:24;28.00;99.90
2158;DHT22;41972;48.774;9.282;2023-06-10T15:19:49;27.40;99.90
2158;DHT22;41972;48.774;9.282;2023-06-10T15:22:15;27.40;99.90
2158;DHT22;41972;48.774;9.282;2023-06-10T15:24:40;27.00;99.90
2158;DHT22;41972;48.774;9.282;2023-06-10T15:27:06;27.30;99.90
2158;DHT22;41972;48.774;9.282;2023-06-10T15:29:32;27.60;99.90
2158;DHT22;41972;48.774;9.282;2023-06-10T15:31:57;27.30;99.90
2158;DHT22;41972;48.774;9.282;2023-06-10T15:34:23;27.20;99.90
2158;DHT22;41972;48.774;9.282;2023-06-10T15:36:48;27.30;99.90
2158;DHT22;41972;48.774;9.282;2023-06-10T15:39:14;26.90;99.90
2158;DHT22;41972;48.774;9.282;2023-06-10T15:41:40;26.70;99.90
2158;DHT22;41972;48.774;9.282;2023-06-10T15:44:05;26.70;99.90
2158;DHT22;41972;48.774;9.282;2023-06-10T15:46:31;26.50;99.90
2158;DHT22;41972;48.774;9.282;2023-06-10T15:48:57;26.60;99.90
2158;DHT22;41972;48.774;9.282;2023-06-10T15:51:23;26.50;99.90
2158;DHT22;41972;48.774;9.282;2023-06-10T15:53:49;26.60;99.90
2158;DHT22;41972;48.774;9.282;2023-06-10T15:56:15;26.60;99.90
2158;DHT22;41972;48.774;9.282;2023-06-10T15:58:41;26.70;99.90
2158;DHT22;41972;48.774;9.282;2023-06-10T16:01:07;26.90;99.90
2158;DHT22;41972;48.774;9.282;2023-06-10T16:03:37;26.80;99.90